createdAt,value
2017-09-15T00:00:02.688Z,10.1
2017-09-15T00:15:03.305Z,10.1
2017-09-15T00:30:02.989Z,10.1
2017-09-15T00:45:02.592Z,10.1
2017-09-15T01:00:03.223Z,10.1
2017-09-15T01:15:02.796Z,10.1
2017-09-15T01:30:03.551Z,10.1
2017-09-15T01:45:03.228Z,10.1
2017-09-15T02:00:02.938Z,10.1
2017-09-15T02:15:02.580Z,10.1
2017-09-15T02:30:03.631Z,10.1
2017-09-15T02:45:03.189Z,10.1
2017-09-15T03:00:02.801Z,10
2017-09-15T03:15:03.410Z,10
2017-09-15T03:30:03.077Z,10
2017-09-15T03:45:02.800Z,10
2017-09-15T04:00:03.474Z,10
2017-09-15T04:15:03.168Z,10
2017-09-15T04:30:02.964Z,10
2017-09-15T04:45:02.593Z,10
2017-09-15T05:00:03.215Z,10
2017-09-15T05:15:02.820Z,10
2017-09-15T05:30:03.533Z,10
2017-09-15T05:45:03.069Z,10
2017-09-15T06:00:02.761Z,10
2017-09-15T06:15:03.382Z,10
2017-09-15T06:30:03.199Z,10.1
2017-09-15T06:45:02.946Z,10.1
2017-09-15T07:00:02.621Z,10.1
2017-09-15T07:15:03.220Z,10.1
2017-09-15T07:30:02.947Z,10.1
2017-09-15T07:45:02.604Z,10.1
2017-09-15T08:00:03.319Z,10.1
2017-09-15T08:15:02.981Z,10.2
2017-09-15T08:30:03.042Z,10.2
2017-09-15T08:45:02.689Z,10.2
2017-09-15T09:00:03.423Z,10.3
2017-09-15T09:15:03.126Z,10.4
2017-09-15T09:30:02.763Z,10.4
2017-09-15T09:45:03.465Z,10.4
2017-09-15T10:00:03.218Z,10.6
2017-09-15T10:15:02.852Z,10.6
2017-09-15T10:30:03.505Z,10.6
2017-09-15T10:45:03.056Z,10.7
2017-09-15T11:00:02.699Z,10.8
2017-09-15T11:15:03.338Z,10.9
2017-09-15T11:30:03.012Z,10.9
2017-09-15T11:45:02.574Z,10.9
2017-09-15T12:00:03.202Z,11
2017-09-15T12:15:02.789Z,11.1
2017-09-15T12:30:03.480Z,11.1
2017-09-15T12:45:03.093Z,11.2
2017-09-15T13:00:02.767Z,11.3
2017-09-15T13:15:03.399Z,11.3
2017-09-15T13:30:03.072Z,11.4
2017-09-15T13:45:02.656Z,11.4
2017-09-15T14:00:03.293Z,11.4
2017-09-15T14:15:02.867Z,11.5
2017-09-15T14:30:02.579Z,11.5
2017-09-15T14:45:03.265Z,11.5
2017-09-15T15:00:02.812Z,11.5
2017-09-15T15:15:03.461Z,11.4
2017-09-15T15:30:03.167Z,11.4
2017-09-15T15:45:02.986Z,11.4
2017-09-15T16:00:02.576Z,11.4
2017-09-15T16:15:03.204Z,11.4
2017-09-15T16:30:02.885Z,11.4
2017-09-15T16:45:03.479Z,11.4
2017-09-15T17:00:03.136Z,11.4
2017-09-15T17:15:02.688Z,11.4
2017-09-15T17:30:03.515Z,11.4
2017-09-15T17:45:03.166Z,11.4
2017-09-15T18:00:02.813Z,11.4
2017-09-15T18:15:03.397Z,11.3
2017-09-15T18:30:03.077Z,11.2
2017-09-15T18:45:02.678Z,11.2
2017-09-15T19:00:03.381Z,11.2
2017-09-15T19:15:03.005Z,11.1
2017-09-15T19:30:02.699Z,11.1
2017-09-15T19:45:03.296Z,11.1
2017-09-15T20:00:02.913Z,11
2017-09-15T20:15:03.547Z,11
2017-09-15T20:30:03.319Z,10.9
2017-09-15T20:45:02.940Z,10.9
2017-09-15T21:00:02.587Z,10.9
2017-09-15T21:15:03.212Z,10.8
2017-09-15T21:30:02.882Z,10.8
2017-09-15T21:45:03.457Z,10.8
2017-09-15T22:00:03.096Z,10.7
2017-09-15T22:15:02.676Z,10.7
2017-09-15T22:30:03.389Z,10.6
2017-09-15T22:45:03.051Z,10.6
2017-09-15T23:00:02.708Z,10.6
2017-09-15T23:15:03.319Z,10.6
2017-09-15T23:30:03.011Z,10.6
2017-09-15T23:45:02.612Z,10.5
